sensor_id;sensor_type;location;lat;lon;timestamp;P1;durP1;ratioP1;P2;durP2;ratioP2
12956;SDS011;6543;48.836;10.092;2023-09-30T00:00:41;8.23;;;4.43;;
12956;SDS011;6543;48.836;10.092;2023-09-30T00:03:10;10.03;;;4.37;;
12956;SDS011;6543;48.836;10.092;2023-09-30T00:05:37;9.70;;;4.80;;
12956;SDS011;6543;48.836;10.092;2023-09-30T00:08:04;10.07;;;4.00;;
12956;SDS011;6543;48.836;10.092;2023-09-30T00:10:32;9.10;;;4.50;;
12956;SDS011;6543;48.836;10.092;2023-09-30T00:12:58;8.93;;;4.57;;
12956;SDS011;6543;48.836;10.092;2023-09-30T00:15:25;9.57;;;4.10;;
12956;SDS011;6543;48.836;10.092;2023-09-30T00:17:52;7.33;;;3.60;;
12956;SDS011;6543;48.836;10.092;2023-09-30T00:20:20;10.53;;;4.47;;
12956;SDS011;6543;48.836;10.092;2023-09-30T00:22:47;8.90;;;4.13;;
12956;SDS011;6543;48.836;10.092;2023-09-30T00:25:14;8.07;;;4.17;;
12956;SDS011;6543;48.836;10.092;2023-09-30T00:27:41;9.50;;;4.00;;
12956;SDS011;6543;48.836;10.092;2023-09-30T00:30:08;7.27;;;3.87;;
12956;SDS011;6543;48.836;10.092;2023-09-30T00:32:36;7.97;;;3.17;;
12956;SDS011;6543;48.836;10.092;2023-09-30T00:35:04;7.47;;;3.60;;
12956;SDS011;6543;48.836;10.092;2023-09-30T00:37:35;9.37;;;4.20;;
12956;SDS011;6543;48.836;10.092;2023-09-30T00:40:02;7.47;;;4.00;;
12956;SDS011;6543;48.836;10.092;2023-09-30T00:42:30;7.57;;;4.20;;
12956;SDS011;6543;48.836;10.092;2023-09-30T00:44:56;8.20;;;3.83;;
12956;SDS011;6543;48.836;10.092;2023-09-30T00:47:23;6.07;;;3.33;;
12956;SDS011;6543;48.836;10.092;2023-09-30T00:49:51;8.73;;;3.90;;
12956;SDS011;6543;48.836;10.092;2023-09-30T00:52:19;8.87;;;3.37;;
12956;SDS011;6543;48.836;10.092;2023-09-30T00:54:48;7.20;;;3.73;;
12956;SDS011;6543;48.836;10.092;2023-09-30T00:57:16;6.50;;;4.00;;
12956;SDS011;6543;48.836;10.092;2023-09-30T00:59:45;8.53;;;3.90;;
12956;SDS011;6543;48.836;10.092;2023-09-30T01:02:14;6.97;;;3.50;;
12956;SDS011;6543;48.836;10.092;2023-09-30T01:04:42;6.90;;;3.53;;
12956;SDS011;6543;48.836;10.092;2023-09-30T01:07:09;6.23;;;3.80;;
12956;SDS011;6543;48.836;10.092;2023-09-30T01:09:36;6.50;;;3.03;;
12956;SDS011;6543;48.836;10.092;2023-09-30T01:12:05;7.33;;;3.67;;
12956;SDS011;6543;48.836;10.092;2023-09-30T01:14:33;9.17;;;3.87;;
12956;SDS011;6543;48.836;10.092;2023-09-30T01:17:01;9.17;;;3.70;;
12956;SDS011;6543;48.836;10.092;2023-09-30T01:19:29;8.43;;;3.70;;
12956;SDS011;6543;48.836;10.092;2023-09-30T01:21:57;7.60;;;3.70;;
12956;SDS011;6543;48.836;10.092;2023-09-30T01:24:24;7.07;;;3.20;;
12956;SDS011;6543;48.836;10.092;2023-09-30T01:26:51;10.80;;;4.00;;
12956;SDS011;6543;48.836;10.092;2023-09-30T01:29:19;7.87;;;3.13;;
12956;SDS011;6543;48.836;10.092;2023-09-30T01:31:47;5.17;;;3.10;;
12956;SDS011;6543;48.836;10.092;2023-09-30T01:34:15;6.23;;;3.17;;
12956;SDS011;6543;48.836;10.092;2023-09-30T01:36:42;6.03;;;3.27;;
12956;SDS011;6543;48.836;10.092;2023-09-30T01:39:10;7.33;;;3.23;;
12956;SDS011;6543;48.836;10.092;2023-09-30T01:41:38;8.00;;;3.13;;
12956;SDS011;6543;48.836;10.092;2023-09-30T01:44:06;6.90;;;3.30;;
12956;SDS011;6543;48.836;10.092;2023-09-30T01:46:34;5.57;;;2.90;;
12956;SDS011;6543;48.836;10.092;2023-09-30T01:49:01;7.07;;;3.10;;
12956;SDS011;6543;48.836;10.092;2023-09-30T01:51:28;4.97;;;2.90;;
12956;SDS011;6543;48.836;10.092;2023-09-30T01:53:55;6.87;;;2.70;;
12956;SDS011;6543;48.836;10.092;2023-09-30T01:56:23;4.90;;;3.10;;
12956;SDS011;6543;48.836;10.092;2023-09-30T01:58:50;4.90;;;2.60;;
12956;SDS011;6543;48.836;10.092;2023-09-30T02:01:17;6.07;;;3.00;;
12956;SDS011;6543;48.836;10.092;2023-09-30T02:03:44;6.23;;;3.10;;
12956;SDS011;6543;48.836;10.092;2023-09-30T02:06:11;7.00;;;3.20;;
12956;SDS011;6543;48.836;10.092;2023-09-30T02:08:38;5.93;;;2.77;;
12956;SDS011;6543;48.836;10.092;2023-09-30T02:11:04;7.13;;;3.00;;
12956;SDS011;6543;48.836;10.092;2023-09-30T02:13:33;6.70;;;3.27;;
12956;SDS011;6543;48.836;10.092;2023-09-30T02:16:00;5.63;;;3.17;;
12956;SDS011;6543;48.836;10.092;2023-09-30T02:18:27;5.47;;;2.90;;
12956;SDS011;6543;48.836;10.092;2023-09-30T02:20:57;9.00;;;3.57;;
12956;SDS011;6543;48.836;10.092;2023-09-30T02:23:24;6.77;;;3.23;;
12956;SDS011;6543;48.836;10.092;2023-09-30T02:25:51;4.60;;;2.63;;
12956;SDS011;6543;48.836;10.092;2023-09-30T02:28:18;8.13;;;3.27;;
12956;SDS011;6543;48.836;10.092;2023-09-30T02:30:46;5.10;;;2.40;;
12956;SDS011;6543;48.836;10.092;2023-09-30T02:33:13;3.53;;;2.47;;
12956;SDS011;6543;48.836;10.092;2023-09-30T02:35:43;4.93;;;2.37;;
12956;SDS011;6543;48.836;10.092;2023-09-30T02:38:10;4.90;;;2.97;;
12956;SDS011;6543;48.836;10.092;2023-09-30T02:40:37;6.80;;;3.20;;
12956;SDS011;6543;48.836;10.092;2023-09-30T02:43:05;4.77;;;3.00;;
12956;SDS011;6543;48.836;10.092;2023-09-30T02:45:32;5.57;;;2.87;;
12956;SDS011;6543;48.836;10.092;2023-09-30T02:48:00;3.87;;;2.77;;
12956;SDS011;6543;48.836;10.092;2023-09-30T02:50:27;4.77;;;2.90;;
12956;SDS011;6543;48.836;10.092;2023-09-30T02:52:54;7.60;;;3.10;;
12956;SDS011;6543;48.836;10.092;2023-09-30T02:55:21;4.93;;;2.97;;
12956;SDS011;6543;48.836;10.092;2023-09-30T02:57:48;5.53;;;2.77;;
12956;SDS011;6543;48.836;10.092;2023-09-30T03:00:15;3.80;;;3.10;;
12956;SDS011;6543;48.836;10.092;2023-09-30T03:02:48;4.37;;;3.00;;
12956;SDS011;6543;48.836;10.092;2023-09-30T03:05:17;4.33;;;3.00;;
12956;SDS011;6543;48.836;10.092;2023-09-30T03:07:43;4.07;;;2.87;;
12956;SDS011;6543;48.836;10.092;2023-09-30T03:10:10;5.03;;;2.73;;
12956;SDS011;6543;48.836;10.092;2023-09-30T03:12:39;6.20;;;3.30;;
12956;SDS011;6543;48.836;10.092;2023-09-30T03:15:06;5.80;;;3.13;;
12956;SDS011;6543;48.836;10.092;2023-09-30T03:17:34;4.07;;;3.30;;
12956;SDS011;6543;48.836;10.092;2023-09-30T03:20:03;4.70;;;3.20;;
12956;SDS011;6543;48.836;10.092;2023-09-30T03:22:45;4.80;;;3.00;;
12956;SDS011;6543;48.836;10.092;2023-09-30T03:25:13;5.33;;;3.33;;
12956;SDS011;6543;48.836;10.092;2023-09-30T03:27:42;6.17;;;3.80;;
12956;SDS011;6543;48.836;10.092;2023-09-30T03:30:10;6.43;;;4.07;;
12956;SDS011;6543;48.836;10.092;2023-09-30T03:32:38;5.67;;;3.60;;
12956;SDS011;6543;48.836;10.092;2023-09-30T03:35:05;4.73;;;3.80;;
12956;SDS011;6543;48.836;10.092;2023-09-30T03:37:33;5.83;;;4.30;;
12956;SDS011;6543;48.836;10.092;2023-09-30T03:40:01;4.83;;;4.30;;
12956;SDS011;6543;48.836;10.092;2023-09-30T03:42:38;6.17;;;3.93;;
12956;SDS011;6543;48.836;10.092;2023-09-30T03:45:07;7.67;;;4.20;;
12956;SDS011;6543;48.836;10.092;2023-09-30T03:47:35;7.63;;;4.20;;
12956;SDS011;6543;48.836;10.092;2023-09-30T03:50:03;4.97;;;4.17;;
12956;SDS011;6543;48.836;10.092;2023-09-30T03:52:37;5.17;;;4.30;;
12956;SDS011;6543;48.836;10.092;2023-09-30T03:55:06;5.47;;;3.73;;
12956;SDS011;6543;48.836;10.092;2023-09-30T03:57:36;5.87;;;4.30;;
12956;SDS011;6543;48.836;10.092;2023-09-30T04:00:04;7.83;;;4.43;;
12956;SDS011;6543;48.836;10.092;2023-09-30T04:02:32;6.07;;;4.00;;
12956;SDS011;6543;48.836;10.092;2023-09-30T04:04:59;6.80;;;4.17;;
12956;SDS011;6543;48.836;10.092;2023-09-30T04:07:29;5.73;;;4.20;;
12956;SDS011;6543;48.836;10.092;2023-09-30T04:09:56;4.67;;;3.80;;
12956;SDS011;6543;48.836;10.092;2023-09-30T04:12:27;8.13;;;3.90;;
12956;SDS011;6543;48.836;10.092;2023-09-30T04:14:54;4.43;;;3.77;;
12956;SDS011;6543;48.836;10.092;2023-09-30T04:17:22;9.50;;;4.30;;
12956;SDS011;6543;48.836;10.092;2023-09-30T04:19:49;5.53;;;3.90;;
12956;SDS011;6543;48.836;10.092;2023-09-30T04:22:16;4.47;;;3.40;;
12956;SDS011;6543;48.836;10.092;2023-09-30T04:24:44;7.60;;;4.10;;
12956;SDS011;6543;48.836;10.092;2023-09-30T04:27:10;4.77;;;3.67;;
12956;SDS011;6543;48.836;10.092;2023-09-30T04:29:38;5.70;;;4.10;;
12956;SDS011;6543;48.836;10.092;2023-09-30T04:32:06;7.70;;;4.17;;
12956;SDS011;6543;48.836;10.092;2023-09-30T04:34:33;4.60;;;3.63;;
12956;SDS011;6543;48.836;10.092;2023-09-30T04:37:00;6.57;;;4.07;;
12956;SDS011;6543;48.836;10.092;2023-09-30T04:39:27;7.43;;;3.77;;
12956;SDS011;6543;48.836;10.092;2023-09-30T04:41:54;5.80;;;4.10;;
12956;SDS011;6543;48.836;10.092;2023-09-30T04:44:21;7.27;;;4.37;;
12956;SDS011;6543;48.836;10.092;2023-09-30T04:46:49;4.53;;;4.00;;
12956;SDS011;6543;48.836;10.092;2023-09-30T04:49:16;8.37;;;4.00;;
12956;SDS011;6543;48.836;10.092;2023-09-30T04:51:44;7.53;;;4.30;;
12956;SDS011;6543;48.836;10.092;2023-09-30T04:54:11;7.67;;;4.00;;
12956;SDS011;6543;48.836;10.092;2023-09-30T04:56:38;5.23;;;4.13;;
12956;SDS011;6543;48.836;10.092;2023-09-30T04:59:05;8.00;;;4.23;;
12956;SDS011;6543;48.836;10.092;2023-09-30T05:01:32;8.13;;;5.17;;
12956;SDS011;6543;48.836;10.092;2023-09-30T05:04:00;9.80;;;4.97;;
12956;SDS011;6543;48.836;10.092;2023-09-30T05:06:27;5.73;;;4.67;;
12956;SDS011;6543;48.836;10.092;2023-09-30T05:08:54;5.37;;;4.23;;
12956;SDS011;6543;48.836;10.092;2023-09-30T05:11:21;7.10;;;4.67;;
12956;SDS011;6543;48.836;10.092;2023-09-30T05:13:48;6.63;;;4.67;;
12956;SDS011;6543;48.836;10.092;2023-09-30T05:16:16;5.60;;;4.67;;
12956;SDS011;6543;48.836;10.092;2023-09-30T05:18:43;7.77;;;4.97;;
12956;SDS011;6543;48.836;10.092;2023-09-30T05:21:11;8.23;;;4.93;;
12956;SDS011;6543;48.836;10.092;2023-09-30T05:23:38;10.40;;;6.47;;
12956;SDS011;6543;48.836;10.092;2023-09-30T05:26:04;6.93;;;4.67;;
12956;SDS011;6543;48.836;10.092;2023-09-30T05:28:32;6.37;;;5.30;;
12956;SDS011;6543;48.836;10.092;2023-09-30T05:30:59;8.57;;;5.77;;
12956;SDS011;6543;48.836;10.092;2023-09-30T05:33:26;8.37;;;4.80;;
12956;SDS011;6543;48.836;10.092;2023-09-30T05:35:53;8.97;;;4.97;;
12956;SDS011;6543;48.836;10.092;2023-09-30T05:38:22;10.27;;;5.17;;
12956;SDS011;6543;48.836;10.092;2023-09-30T05:40:49;10.57;;;6.10;;
12956;SDS011;6543;48.836;10.092;2023-09-30T05:43:16;10.60;;;6.30;;
12956;SDS011;6543;48.836;10.092;2023-09-30T05:45:44;9.57;;;5.73;;
12956;SDS011;6543;48.836;10.092;2023-09-30T05:48:14;7.43;;;5.30;;
12956;SDS011;6543;48.836;10.092;2023-09-30T05:50:41;7.10;;;5.70;;
12956;SDS011;6543;48.836;10.092;2023-09-30T05:53:08;7.67;;;4.97;;
12956;SDS011;6543;48.836;10.092;2023-09-30T05:55:38;5.90;;;4.80;;
12956;SDS011;6543;48.836;10.092;2023-09-30T05:58:07;10.27;;;5.27;;
12956;SDS011;6543;48.836;10.092;2023-09-30T06:00:34;5.83;;;4.70;;
12956;SDS011;6543;48.836;10.092;2023-09-30T06:03:02;7.23;;;5.20;;
12956;SDS011;6543;48.836;10.092;2023-09-30T06:05:31;6.43;;;4.73;;
12956;SDS011;6543;48.836;10.092;2023-09-30T06:07:59;6.70;;;4.53;;
12956;SDS011;6543;48.836;10.092;2023-09-30T06:10:29;9.53;;;5.30;;
12956;SDS011;6543;48.836;10.092;2023-09-30T06:12:58;8.90;;;4.97;;
12956;SDS011;6543;48.836;10.092;2023-09-30T06:15:25;8.03;;;5.10;;
12956;SDS011;6543;48.836;10.092;2023-09-30T06:17:52;10.37;;;5.23;;
12956;SDS011;6543;48.836;10.092;2023-09-30T06:20:20;6.70;;;5.00;;
12956;SDS011;6543;48.836;10.092;2023-09-30T06:22:51;8.13;;;5.27;;
12956;SDS011;6543;48.836;10.092;2023-09-30T06:25:19;8.53;;;4.93;;
12956;SDS011;6543;48.836;10.092;2023-09-30T06:27:48;8.10;;;4.60;;
12956;SDS011;6543;48.836;10.092;2023-09-30T06:30:17;5.77;;;4.83;;
12956;SDS011;6543;48.836;10.092;2023-09-30T06:32:46;6.20;;;4.87;;
12956;SDS011;6543;48.836;10.092;2023-09-30T06:35:13;7.30;;;5.20;;
12956;SDS011;6543;48.836;10.092;2023-09-30T06:37:40;8.53;;;5.10;;
12956;SDS011;6543;48.836;10.092;2023-09-30T06:40:07;8.13;;;5.53;;
12956;SDS011;6543;48.836;10.092;2023-09-30T06:42:37;6.70;;;5.33;;
12956;SDS011;6543;48.836;10.092;2023-09-30T06:45:06;6.83;;;5.13;;
12956;SDS011;6543;48.836;10.092;2023-09-30T06:47:36;7.00;;;5.10;;
12956;SDS011;6543;48.836;10.092;2023-09-30T06:50:07;6.80;;;4.93;;
12956;SDS011;6543;48.836;10.092;2023-09-30T06:52:37;9.10;;;5.07;;
12956;SDS011;6543;48.836;10.092;2023-09-30T06:55:06;8.73;;;4.90;;
12956;SDS011;6543;48.836;10.092;2023-09-30T06:57:34;9.97;;;4.77;;
12956;SDS011;6543;48.836;10.092;2023-09-30T07:00:04;11.43;;;4.33;;
12956;SDS011;6543;48.836;10.092;2023-09-30T07:02:33;6.87;;;4.30;;
12956;SDS011;6543;48.836;10.092;2023-09-30T07:05:04;12.50;;;4.97;;
12956;SDS011;6543;48.836;10.092;2023-09-30T07:07:32;9.80;;;5.60;;
12956;SDS011;6543;48.836;10.092;2023-09-30T07:09:59;8.40;;;4.97;;
12956;SDS011;6543;48.836;10.092;2023-09-30T07:12:26;6.80;;;5.13;;
12956;SDS011;6543;48.836;10.092;2023-09-30T07:14:53;5.90;;;4.37;;
12956;SDS011;6543;48.836;10.092;2023-09-30T07:17:20;8.43;;;4.57;;
12956;SDS011;6543;48.836;10.092;2023-09-30T07:19:47;7.30;;;4.53;;
12956;SDS011;6543;48.836;10.092;2023-09-30T07:22:17;5.77;;;4.70;;
12956;SDS011;6543;48.836;10.092;2023-09-30T07:24:44;8.37;;;4.73;;
12956;SDS011;6543;48.836;10.092;2023-09-30T07:27:11;8.87;;;4.20;;
12956;SDS011;6543;48.836;10.092;2023-09-30T07:29:38;9.17;;;4.87;;
12956;SDS011;6543;48.836;10.092;2023-09-30T07:32:06;8.67;;;4.70;;
12956;SDS011;6543;48.836;10.092;2023-09-30T07:34:33;7.80;;;5.00;;
12956;SDS011;6543;48.836;10.092;2023-09-30T07:37:00;8.53;;;5.10;;
12956;SDS011;6543;48.836;10.092;2023-09-30T07:39:28;9.10;;;5.00;;
12956;SDS011;6543;48.836;10.092;2023-09-30T07:41:58;6.83;;;4.80;;
12956;SDS011;6543;48.836;10.092;2023-09-30T07:44:25;7.00;;;4.70;;
12956;SDS011;6543;48.836;10.092;2023-09-30T07:46:52;8.33;;;4.70;;
12956;SDS011;6543;48.836;10.092;2023-09-30T07:49:19;7.27;;;4.83;;
12956;SDS011;6543;48.836;10.092;2023-09-30T07:51:46;5.60;;;4.10;;
12956;SDS011;6543;48.836;10.092;2023-09-30T07:54:13;7.80;;;5.50;;
12956;SDS011;6543;48.836;10.092;2023-09-30T07:56:42;7.68;;;5.10;;
12956;SDS011;6543;48.836;10.092;2023-09-30T07:59:08;11.47;;;4.57;;
12956;SDS011;6543;48.836;10.092;2023-09-30T08:01:36;8.70;;;4.90;;
12956;SDS011;6543;48.836;10.092;2023-09-30T08:04:03;8.47;;;5.17;;
12956;SDS011;6543;48.836;10.092;2023-09-30T08:06:31;7.77;;;5.10;;
12956;SDS011;6543;48.836;10.092;2023-09-30T08:08:58;6.73;;;4.70;;
12956;SDS011;6543;48.836;10.092;2023-09-30T08:11:25;6.37;;;4.53;;
12956;SDS011;6543;48.836;10.092;2023-09-30T08:13:57;7.10;;;4.50;;
12956;SDS011;6543;48.836;10.092;2023-09-30T08:19:51;9.13;;;4.20;;
12956;SDS011;6543;48.836;10.092;2023-09-30T08:22:18;6.70;;;4.30;;
12956;SDS011;6543;48.836;10.092;2023-09-30T08:24:44;5.50;;;4.30;;
12956;SDS011;6543;48.836;10.092;2023-09-30T08:27:11;6.47;;;4.13;;
12956;SDS011;6543;48.836;10.092;2023-09-30T08:29:40;6.63;;;4.30;;
12956;SDS011;6543;48.836;10.092;2023-09-30T08:32:08;7.23;;;4.73;;
12956;SDS011;6543;48.836;10.092;2023-09-30T08:34:35;7.03;;;4.20;;
12956;SDS011;6543;48.836;10.092;2023-09-30T08:37:02;7.77;;;4.43;;
12956;SDS011;6543;48.836;10.092;2023-09-30T08:39:29;5.57;;;4.10;;
12956;SDS011;6543;48.836;10.092;2023-09-30T08:41:56;6.83;;;4.73;;
12956;SDS011;6543;48.836;10.092;2023-09-30T08:44:28;8.53;;;4.20;;
12956;SDS011;6543;48.836;10.092;2023-09-30T08:47:28;13.33;;;4.80;;
12956;SDS011;6543;48.836;10.092;2023-09-30T08:50:00;8.43;;;4.50;;
12956;SDS011;6543;48.836;10.092;2023-09-30T08:52:33;9.27;;;4.10;;
12956;SDS011;6543;48.836;10.092;2023-09-30T08:55:02;7.90;;;4.07;;
12956;SDS011;6543;48.836;10.092;2023-09-30T08:57:29;9.60;;;5.23;;
12956;SDS011;6543;48.836;10.092;2023-09-30T08:59:56;7.30;;;4.17;;
12956;SDS011;6543;48.836;10.092;2023-09-30T09:02:26;4.93;;;3.47;;
12956;SDS011;6543;48.836;10.092;2023-09-30T09:04:54;7.95;;;4.22;;
12956;SDS011;6543;48.836;10.092;2023-09-30T09:07:21;11.30;;;5.07;;
12956;SDS011;6543;48.836;10.092;2023-09-30T09:10:02;8.37;;;4.23;;
12956;SDS011;6543;48.836;10.092;2023-09-30T09:12:34;7.70;;;4.47;;
12956;SDS011;6543;48.836;10.092;2023-09-30T09:15:19;7.72;;;4.45;;
12956;SDS011;6543;48.836;10.092;2023-09-30T09:17:55;10.32;;;5.30;;
12956;SDS011;6543;48.836;10.092;2023-09-30T09:20:40;8.00;;;4.35;;
12956;SDS011;6543;48.836;10.092;2023-09-30T09:23:24;9.85;;;4.45;;
12956;SDS011;6543;48.836;10.092;2023-09-30T09:25:52;11.63;;;5.32;;
12956;SDS011;6543;48.836;10.092;2023-09-30T09:28:18;9.80;;;5.13;;
12956;SDS011;6543;48.836;10.092;2023-09-30T09:30:45;7.70;;;4.73;;
12956;SDS011;6543;48.836;10.092;2023-09-30T09:33:14;8.48;;;4.53;;
12956;SDS011;6543;48.836;10.092;2023-09-30T09:35:41;7.75;;;4.22;;
12956;SDS011;6543;48.836;10.092;2023-09-30T09:38:18;7.20;;;4.13;;
12956;SDS011;6543;48.836;10.092;2023-09-30T09:40:50;10.35;;;4.45;;
12956;SDS011;6543;48.836;10.092;2023-09-30T09:43:17;10.75;;;4.75;;
12956;SDS011;6543;48.836;10.092;2023-09-30T09:45:44;10.38;;;4.53;;
12956;SDS011;6543;48.836;10.092;2023-09-30T09:48:11;9.70;;;5.57;;
12956;SDS011;6543;48.836;10.092;2023-09-30T09:50:40;6.83;;;4.40;;
12956;SDS011;6543;48.836;10.092;2023-09-30T09:53:09;7.38;;;4.50;;
12956;SDS011;6543;48.836;10.092;2023-09-30T09:55:41;11.10;;;5.45;;
12956;SDS011;6543;48.836;10.092;2023-09-30T09:58:12;6.38;;;3.95;;
12956;SDS011;6543;48.836;10.092;2023-09-30T10:00:41;7.85;;;4.22;;
12956;SDS011;6543;48.836;10.092;2023-09-30T10:03:11;9.00;;;4.57;;
12956;SDS011;6543;48.836;10.092;2023-09-30T10:05:41;8.77;;;4.35;;
12956;SDS011;6543;48.836;10.092;2023-09-30T10:08:14;8.75;;;4.30;;
12956;SDS011;6543;48.836;10.092;2023-09-30T10:10:49;8.70;;;4.20;;
12956;SDS011;6543;48.836;10.092;2023-09-30T10:19:19;6.90;;;3.90;;
12956;SDS011;6543;48.836;10.092;2023-09-30T10:27:32;11.38;;;4.20;;
12956;SDS011;6543;48.836;10.092;2023-09-30T10:30:15;9.30;;;4.88;;
12956;SDS011;6543;48.836;10.092;2023-09-30T10:35:43;8.20;;;4.13;;
12956;SDS011;6543;48.836;10.092;2023-09-30T10:41:08;8.48;;;4.28;;
12956;SDS011;6543;48.836;10.092;2023-09-30T10:43:38;9.38;;;4.90;;
12956;SDS011;6543;48.836;10.092;2023-09-30T10:49:14;9.73;;;4.82;;
12956;SDS011;6543;48.836;10.092;2023-09-30T10:52:03;9.10;;;5.05;;
12956;SDS011;6543;48.836;10.092;2023-09-30T10:54:32;11.27;;;4.97;;
12956;SDS011;6543;48.836;10.092;2023-09-30T10:57:02;9.88;;;5.38;;
12956;SDS011;6543;48.836;10.092;2023-09-30T10:59:31;9.18;;;4.97;;
12956;SDS011;6543;48.836;10.092;2023-09-30T11:02:00;10.30;;;5.53;;
12956;SDS011;6543;48.836;10.092;2023-09-30T11:04:30;9.55;;;4.60;;
12956;SDS011;6543;48.836;10.092;2023-09-30T11:07:21;8.43;;;4.47;;
12956;SDS011;6543;48.836;10.092;2023-09-30T11:10:14;11.07;;;6.15;;
12956;SDS011;6543;48.836;10.092;2023-09-30T11:13:01;13.70;;;6.75;;
12956;SDS011;6543;48.836;10.092;2023-09-30T11:15:30;9.68;;;5.07;;
12956;SDS011;6543;48.836;10.092;2023-09-30T11:18:13;10.32;;;5.95;;
12956;SDS011;6543;48.836;10.092;2023-09-30T11:20:44;13.00;;;5.47;;
12956;SDS011;6543;48.836;10.092;2023-09-30T11:23:18;11.43;;;5.88;;
12956;SDS011;6543;48.836;10.092;2023-09-30T11:25:50;30.30;;;17.00;;
12956;SDS011;6543;48.836;10.092;2023-09-30T11:28:24;14.10;;;5.65;;
12956;SDS011;6543;48.836;10.092;2023-09-30T11:36:11;9.45;;;5.25;;
12956;SDS011;6543;48.836;10.092;2023-09-30T11:38:47;10.00;;;5.90;;
12956;SDS011;6543;48.836;10.092;2023-09-30T11:41:16;8.77;;;5.25;;
12956;SDS011;6543;48.836;10.092;2023-09-30T11:44:00;12.43;;;6.10;;
12956;SDS011;6543;48.836;10.092;2023-09-30T11:46:30;13.77;;;6.47;;
12956;SDS011;6543;48.836;10.092;2023-09-30T11:48:59;12.68;;;6.53;;
12956;SDS011;6543;48.836;10.092;2023-09-30T11:51:26;13.73;;;6.13;;
12956;SDS011;6543;48.836;10.092;2023-09-30T11:53:53;10.73;;;6.05;;
12956;SDS011;6543;48.836;10.092;2023-09-30T11:56:24;13.45;;;5.90;;
12956;SDS011;6543;48.836;10.092;2023-09-30T11:58:54;11.55;;;6.28;;
12956;SDS011;6543;48.836;10.092;2023-09-30T12:01:23;11.38;;;6.40;;
12956;SDS011;6543;48.836;10.092;2023-09-30T12:03:51;13.65;;;6.07;;
12956;SDS011;6543;48.836;10.092;2023-09-30T12:06:20;13.38;;;6.63;;
12956;SDS011;6543;48.836;10.092;2023-09-30T12:08:47;9.88;;;6.20;;
12956;SDS011;6543;48.836;10.092;2023-09-30T12:11:16;13.48;;;6.18;;
12956;SDS011;6543;48.836;10.092;2023-09-30T12:13:45;12.32;;;6.47;;
12956;SDS011;6543;48.836;10.092;2023-09-30T12:16:14;16.20;;;6.43;;
12956;SDS011;6543;48.836;10.092;2023-09-30T12:18:41;19.67;;;8.93;;
12956;SDS011;6543;48.836;10.092;2023-09-30T12:21:08;12.75;;;6.75;;
12956;SDS011;6543;48.836;10.092;2023-09-30T12:23:35;12.77;;;6.57;;
12956;SDS011;6543;48.836;10.092;2023-09-30T12:26:02;12.82;;;7.40;;
12956;SDS011;6543;48.836;10.092;2023-09-30T12:28:30;13.90;;;6.85;;
12956;SDS011;6543;48.836;10.092;2023-09-30T12:30:59;11.63;;;6.18;;
12956;SDS011;6543;48.836;10.092;2023-09-30T12:33:28;12.40;;;6.32;;
12956;SDS011;6543;48.836;10.092;2023-09-30T12:35:55;12.63;;;6.20;;
12956;SDS011;6543;48.836;10.092;2023-09-30T12:38:23;11.32;;;5.85;;
12956;SDS011;6543;48.836;10.092;2023-09-30T12:40:50;9.57;;;5.53;;
12956;SDS011;6543;48.836;10.092;2023-09-30T12:43:17;11.77;;;6.32;;
12956;SDS011;6543;48.836;10.092;2023-09-30T12:45:45;11.63;;;5.80;;
12956;SDS011;6543;48.836;10.092;2023-09-30T12:48:13;10.40;;;5.50;;
12956;SDS011;6543;48.836;10.092;2023-09-30T12:50:40;10.45;;;5.55;;
12956;SDS011;6543;48.836;10.092;2023-09-30T12:53:07;13.18;;;6.43;;
12956;SDS011;6543;48.836;10.092;2023-09-30T12:55:34;12.35;;;5.45;;
12956;SDS011;6543;48.836;10.092;2023-09-30T12:58:01;15.73;;;7.00;;
12956;SDS011;6543;48.836;10.092;2023-09-30T13:00:28;11.55;;;6.38;;
12956;SDS011;6543;48.836;10.092;2023-09-30T13:02:55;13.00;;;6.57;;
12956;SDS011;6543;48.836;10.092;2023-09-30T13:05:24;14.10;;;8.10;;
12956;SDS011;6543;48.836;10.092;2023-09-30T13:07:51;13.60;;;6.93;;
12956;SDS011;6543;48.836;10.092;2023-09-30T13:10:18;13.13;;;7.10;;
12956;SDS011;6543;48.836;10.092;2023-09-30T13:12:45;13.15;;;7.05;;
12956;SDS011;6543;48.836;10.092;2023-09-30T13:15:12;15.02;;;6.57;;
12956;SDS011;6543;48.836;10.092;2023-09-30T13:17:39;12.30;;;6.78;;
12956;SDS011;6543;48.836;10.092;2023-09-30T13:20:06;12.77;;;7.18;;
12956;SDS011;6543;48.836;10.092;2023-09-30T13:22:35;12.57;;;7.00;;
12956;SDS011;6543;48.836;10.092;2023-09-30T13:25:03;11.45;;;6.57;;
12956;SDS011;6543;48.836;10.092;2023-09-30T13:27:30;14.20;;;6.93;;
12956;SDS011;6543;48.836;10.092;2023-09-30T13:29:58;14.43;;;6.57;;
12956;SDS011;6543;48.836;10.092;2023-09-30T13:32:24;13.40;;;6.75;;
12956;SDS011;6543;48.836;10.092;2023-09-30T13:34:51;12.93;;;7.15;;
12956;SDS011;6543;48.836;10.092;2023-09-30T13:37:21;14.25;;;7.22;;
12956;SDS011;6543;48.836;10.092;2023-09-30T13:39:56;12.98;;;6.65;;
12956;SDS011;6543;48.836;10.092;2023-09-30T13:42:23;12.75;;;6.13;;
12956;SDS011;6543;48.836;10.092;2023-09-30T13:44:49;11.60;;;5.18;;
12956;SDS011;6543;48.836;10.092;2023-09-30T13:47:16;14.73;;;6.55;;
12956;SDS011;6543;48.836;10.092;2023-09-30T13:49:43;12.93;;;5.60;;
12956;SDS011;6543;48.836;10.092;2023-09-30T13:52:11;11.13;;;5.68;;
12956;SDS011;6543;48.836;10.092;2023-09-30T13:54:38;22.55;;;11.32;;
12956;SDS011;6543;48.836;10.092;2023-09-30T13:57:06;14.13;;;6.30;;
12956;SDS011;6543;48.836;10.092;2023-09-30T13:59:33;9.98;;;5.75;;
12956;SDS011;6543;48.836;10.092;2023-09-30T14:02:01;14.48;;;5.90;;
12956;SDS011;6543;48.836;10.092;2023-09-30T14:04:29;12.18;;;6.22;;
12956;SDS011;6543;48.836;10.092;2023-09-30T14:06:56;10.57;;;5.32;;
12956;SDS011;6543;48.836;10.092;2023-09-30T14:09:25;13.77;;;5.60;;
12956;SDS011;6543;48.836;10.092;2023-09-30T14:11:52;15.88;;;8.65;;
12956;SDS011;6543;48.836;10.092;2023-09-30T14:14:20;12.23;;;6.85;;
12956;SDS011;6543;48.836;10.092;2023-09-30T14:16:47;14.90;;;6.32;;
12956;SDS011;6543;48.836;10.092;2023-09-30T14:19:14;12.30;;;5.55;;
12956;SDS011;6543;48.836;10.092;2023-09-30T14:21:40;12.75;;;5.72;;
12956;SDS011;6543;48.836;10.092;2023-09-30T14:24:08;10.20;;;5.75;;
12956;SDS011;6543;48.836;10.092;2023-09-30T14:26:34;13.43;;;6.88;;
12956;SDS011;6543;48.836;10.092;2023-09-30T14:29:01;14.95;;;7.72;;
12956;SDS011;6543;48.836;10.092;2023-09-30T14:31:30;11.82;;;6.57;;
12956;SDS011;6543;48.836;10.092;2023-09-30T14:33:56;10.98;;;5.60;;
12956;SDS011;6543;48.836;10.092;2023-09-30T14:36:23;10.88;;;5.68;;
12956;SDS011;6543;48.836;10.092;2023-09-30T14:38:50;12.48;;;6.07;;
12956;SDS011;6543;48.836;10.092;2023-09-30T14:41:17;12.48;;;6.13;;
12956;SDS011;6543;48.836;10.092;2023-09-30T14:43:44;7.95;;;4.78;;
12956;SDS011;6543;48.836;10.092;2023-09-30T14:46:11;10.88;;;6.13;;
12956;SDS011;6543;48.836;10.092;2023-09-30T14:48:39;12.43;;;6.18;;
12956;SDS011;6543;48.836;10.092;2023-09-30T14:51:07;10.52;;;5.20;;
12956;SDS011;6543;48.836;10.092;2023-09-30T14:53:34;10.13;;;5.75;;
12956;SDS011;6543;48.836;10.092;2023-09-30T14:56:01;10.73;;;4.68;;
12956;SDS011;6543;48.836;10.092;2023-09-30T14:58:28;12.63;;;5.88;;
12956;SDS011;6543;48.836;10.092;2023-09-30T15:00:55;10.98;;;5.13;;
12956;SDS011;6543;48.836;10.092;2023-09-30T15:03:21;8.63;;;4.85;;
12956;SDS011;6543;48.836;10.092;2023-09-30T15:05:50;12.80;;;5.72;;
12956;SDS011;6543;48.836;10.092;2023-09-30T15:08:24;9.90;;;5.22;;
12956;SDS011;6543;48.836;10.092;2023-09-30T15:10:51;10.00;;;5.20;;
12956;SDS011;6543;48.836;10.092;2023-09-30T15:13:19;14.27;;;5.78;;
12956;SDS011;6543;48.836;10.092;2023-09-30T15:15:46;14.43;;;6.72;;
12956;SDS011;6543;48.836;10.092;2023-09-30T15:18:13;11.25;;;5.78;;
12956;SDS011;6543;48.836;10.092;2023-09-30T15:20:40;19.05;;;7.43;;